KSDB

Sandberg Airport

Sandberg, California, USA
METAR KSDB 190853Z AUTO 33013KT 10SM CLR 16/04 A2998 RMK AO2 SLP096 T01610044 58005
Observed Flight Rules
Sep-19 @ 08:53 UTC (12 minutes ago) Visual Flight Rules
Wind Visibility Clouds
330° at 13 knots 10 miles
  • Clear skies
Temperatures Readings
Current 16°C / 61°F
Dewpoint 4°C / 39°F
Humidity 45%
Altimeter 29.98" Hg
Pressure 1009.6 hPa
Elevation 1377
METAR KSDB 190853Z AUTO 33013KT 10SM CLR 16/04 A2998 RMK AO2 SLP096 T01610044 58005
Observed Flight Rules
Sep-19 @ 08:53 UTC
(12 minutes ago)
VFR
Wind Visibility
330° at 13 knots 10 miles
Clouds
  • Clear skies
Temperature Dewpoint
16°C / 61°F 4°C / 39°F
Humidity Altimeter Pressure
45% 29.98" Hg 1009.6 hPa